sensor_id;sensor_type;location;lat;lon;timestamp;P1;durP1;ratioP1;P2;durP2;ratioP2
11582;SDS011;34299;50.820;4.548;2022-11-15T00:01:25;20.23;;;10.40;;
11582;SDS011;34299;50.820;4.548;2022-11-15T00:03:52;16.77;;;10.03;;
11582;SDS011;34299;50.820;4.548;2022-11-15T00:06:20;19.73;;;11.60;;
11582;SDS011;34299;50.820;4.548;2022-11-15T00:08:48;16.13;;;9.73;;
11582;SDS011;34299;50.820;4.548;2022-11-15T00:11:15;15.77;;;10.00;;
11582;SDS011;34299;50.820;4.548;2022-11-15T00:13:42;13.87;;;9.23;;
11582;SDS011;34299;50.820;4.548;2022-11-15T00:16:10;16.07;;;9.97;;
11582;SDS011;34299;50.820;4.548;2022-11-15T00:18:38;15.17;;;9.77;;
11582;SDS011;34299;50.820;4.548;2022-11-15T00:21:07;14.53;;;9.37;;
11582;SDS011;34299;50.820;4.548;2022-11-15T00:23:34;15.43;;;9.73;;
11582;SDS011;34299;50.820;4.548;2022-11-15T00:26:02;17.10;;;9.50;;
11582;SDS011;34299;50.820;4.548;2022-11-15T00:28:29;15.53;;;9.97;;
11582;SDS011;34299;50.820;4.548;2022-11-15T00:30:59;15.23;;;9.43;;
11582;SDS011;34299;50.820;4.548;2022-11-15T00:33:28;18.60;;;10.73;;
11582;SDS011;34299;50.820;4.548;2022-11-15T00:35:59;17.97;;;10.70;;
11582;SDS011;34299;50.820;4.548;2022-11-15T00:38:30;17.40;;;9.73;;
11582;SDS011;34299;50.820;4.548;2022-11-15T00:40:57;18.63;;;10.47;;
11582;SDS011;34299;50.820;4.548;2022-11-15T00:43:24;20.13;;;9.90;;
11582;SDS011;34299;50.820;4.548;2022-11-15T00:45:51;17.43;;;10.33;;
11582;SDS011;34299;50.820;4.548;2022-11-15T00:48:19;17.90;;;10.37;;
11582;SDS011;34299;50.820;4.548;2022-11-15T00:50:47;17.73;;;11.20;;
11582;SDS011;34299;50.820;4.548;2022-11-15T00:53:14;14.50;;;9.57;;
11582;SDS011;34299;50.820;4.548;2022-11-15T00:55:42;16.13;;;9.73;;
11582;SDS011;34299;50.820;4.548;2022-11-15T00:58:09;13.73;;;9.80;;
11582;SDS011;34299;50.820;4.548;2022-11-15T01:00:36;16.27;;;9.83;;
11582;SDS011;34299;50.820;4.548;2022-11-15T01:03:03;16.30;;;10.30;;
11582;SDS011;34299;50.820;4.548;2022-11-15T01:05:36;18.77;;;10.83;;
11582;SDS011;34299;50.820;4.548;2022-11-15T01:08:05;17.83;;;10.60;;
11582;SDS011;34299;50.820;4.548;2022-11-15T01:10:33;16.37;;;10.53;;
11582;SDS011;34299;50.820;4.548;2022-11-15T01:13:00;16.57;;;10.80;;
11582;SDS011;34299;50.820;4.548;2022-11-15T01:15:27;17.33;;;10.43;;
11582;SDS011;34299;50.820;4.548;2022-11-15T01:17:54;18.40;;;10.93;;
11582;SDS011;34299;50.820;4.548;2022-11-15T01:20:21;15.40;;;8.67;;
11582;SDS011;34299;50.820;4.548;2022-11-15T01:22:49;16.97;;;9.90;;
11582;SDS011;34299;50.820;4.548;2022-11-15T01:25:17;14.53;;;9.73;;
11582;SDS011;34299;50.820;4.548;2022-11-15T01:27:44;19.37;;;11.70;;
11582;SDS011;34299;50.820;4.548;2022-11-15T01:30:12;12.57;;;9.93;;
11582;SDS011;34299;50.820;4.548;2022-11-15T01:32:39;16.77;;;10.13;;
11582;SDS011;34299;50.820;4.548;2022-11-15T01:35:06;18.13;;;11.93;;
11582;SDS011;34299;50.820;4.548;2022-11-15T01:37:34;25.00;;;13.03;;
11582;SDS011;34299;50.820;4.548;2022-11-15T01:40:01;21.43;;;11.97;;
11582;SDS011;34299;50.820;4.548;2022-11-15T01:42:29;23.10;;;11.77;;
11582;SDS011;34299;50.820;4.548;2022-11-15T01:44:57;21.97;;;12.37;;
11582;SDS011;34299;50.820;4.548;2022-11-15T01:47:24;18.20;;;12.57;;
11582;SDS011;34299;50.820;4.548;2022-11-15T01:49:54;20.90;;;11.80;;
11582;SDS011;34299;50.820;4.548;2022-11-15T01:52:23;18.40;;;11.70;;
11582;SDS011;34299;50.820;4.548;2022-11-15T01:54:53;21.43;;;12.87;;
11582;SDS011;34299;50.820;4.548;2022-11-15T01:57:20;19.43;;;12.63;;
11582;SDS011;34299;50.820;4.548;2022-11-15T01:59:49;19.30;;;11.83;;
11582;SDS011;34299;50.820;4.548;2022-11-15T02:02:16;19.17;;;11.97;;
11582;SDS011;34299;50.820;4.548;2022-11-15T02:04:44;19.80;;;11.17;;
11582;SDS011;34299;50.820;4.548;2022-11-15T02:07:12;15.07;;;9.97;;
11582;SDS011;34299;50.820;4.548;2022-11-15T02:09:40;16.97;;;10.03;;
11582;SDS011;34299;50.820;4.548;2022-11-15T02:12:07;17.13;;;10.60;;
11582;SDS011;34299;50.820;4.548;2022-11-15T02:14:37;15.27;;;10.00;;
11582;SDS011;34299;50.820;4.548;2022-11-15T02:17:10;14.93;;;10.10;;
11582;SDS011;34299;50.820;4.548;2022-11-15T02:19:47;15.67;;;10.03;;
11582;SDS011;34299;50.820;4.548;2022-11-15T02:22:22;17.50;;;10.40;;
11582;SDS011;34299;50.820;4.548;2022-11-15T02:24:57;16.00;;;10.07;;
11582;SDS011;34299;50.820;4.548;2022-11-15T02:30:21;20.73;;;11.23;;
11582;SDS011;34299;50.820;4.548;2022-11-15T02:32:49;17.50;;;9.90;;
11582;SDS011;34299;50.820;4.548;2022-11-15T02:35:19;16.77;;;10.33;;
11582;SDS011;34299;50.820;4.548;2022-11-15T02:37:51;14.77;;;9.43;;
11582;SDS011;34299;50.820;4.548;2022-11-15T02:40:23;14.77;;;9.90;;
11582;SDS011;34299;50.820;4.548;2022-11-15T02:42:54;17.40;;;9.97;;
11582;SDS011;34299;50.820;4.548;2022-11-15T02:45:42;15.63;;;9.83;;
11582;SDS011;34299;50.820;4.548;2022-11-15T02:48:11;14.17;;;10.40;;
11582;SDS011;34299;50.820;4.548;2022-11-15T02:50:39;18.47;;;10.07;;
11582;SDS011;34299;50.820;4.548;2022-11-15T02:53:07;15.80;;;9.23;;
11582;SDS011;34299;50.820;4.548;2022-11-15T02:55:36;16.47;;;9.00;;
11582;SDS011;34299;50.820;4.548;2022-11-15T02:58:08;17.43;;;9.90;;
11582;SDS011;34299;50.820;4.548;2022-11-15T03:00:38;14.73;;;9.93;;
11582;SDS011;34299;50.820;4.548;2022-11-15T03:03:16;14.30;;;9.17;;
11582;SDS011;34299;50.820;4.548;2022-11-15T03:05:48;16.83;;;10.33;;
11582;SDS011;34299;50.820;4.548;2022-11-15T03:08:21;16.50;;;10.03;;
11582;SDS011;34299;50.820;4.548;2022-11-15T03:10:51;15.03;;;9.77;;
11582;SDS011;34299;50.820;4.548;2022-11-15T03:13:21;13.70;;;9.70;;
11582;SDS011;34299;50.820;4.548;2022-11-15T03:15:52;14.97;;;10.10;;
11582;SDS011;34299;50.820;4.548;2022-11-15T03:18:23;20.40;;;10.57;;
11582;SDS011;34299;50.820;4.548;2022-11-15T03:20:54;15.30;;;10.20;;
11582;SDS011;34299;50.820;4.548;2022-11-15T03:23:22;14.20;;;9.77;;
11582;SDS011;34299;50.820;4.548;2022-11-15T03:25:50;17.90;;;9.70;;
11582;SDS011;34299;50.820;4.548;2022-11-15T03:28:20;14.20;;;9.73;;
11582;SDS011;34299;50.820;4.548;2022-11-15T03:30:49;12.33;;;9.00;;
11582;SDS011;34299;50.820;4.548;2022-11-15T03:33:16;13.80;;;9.33;;
11582;SDS011;34299;50.820;4.548;2022-11-15T03:35:45;14.17;;;8.70;;
11582;SDS011;34299;50.820;4.548;2022-11-15T03:38:14;16.07;;;9.67;;
11582;SDS011;34299;50.820;4.548;2022-11-15T03:40:45;12.27;;;8.67;;
11582;SDS011;34299;50.820;4.548;2022-11-15T03:43:16;14.80;;;9.43;;
11582;SDS011;34299;50.820;4.548;2022-11-15T03:45:48;11.37;;;7.60;;
11582;SDS011;34299;50.820;4.548;2022-11-15T03:48:18;15.47;;;8.20;;
11582;SDS011;34299;50.820;4.548;2022-11-15T03:50:48;16.07;;;8.57;;
11582;SDS011;34299;50.820;4.548;2022-11-15T03:53:16;13.50;;;7.73;;
11582;SDS011;34299;50.820;4.548;2022-11-15T03:55:43;10.90;;;6.57;;
11582;SDS011;34299;50.820;4.548;2022-11-15T03:58:11;12.23;;;7.17;;
11582;SDS011;34299;50.820;4.548;2022-11-15T04:00:38;11.67;;;6.90;;
11582;SDS011;34299;50.820;4.548;2022-11-15T04:03:05;10.67;;;5.70;;
11582;SDS011;34299;50.820;4.548;2022-11-15T04:05:33;11.07;;;6.63;;
11582;SDS011;34299;50.820;4.548;2022-11-15T04:08:02;14.33;;;6.17;;
11582;SDS011;34299;50.820;4.548;2022-11-15T04:10:29;10.40;;;6.13;;
11582;SDS011;34299;50.820;4.548;2022-11-15T04:12:56;13.17;;;7.10;;
11582;SDS011;34299;50.820;4.548;2022-11-15T04:15:23;9.13;;;6.40;;
11582;SDS011;34299;50.820;4.548;2022-11-15T04:17:51;8.03;;;5.73;;
11582;SDS011;34299;50.820;4.548;2022-11-15T04:20:20;10.30;;;6.23;;
11582;SDS011;34299;50.820;4.548;2022-11-15T04:23:06;11.00;;;6.37;;
11582;SDS011;34299;50.820;4.548;2022-11-15T04:25:52;9.50;;;5.87;;
11582;SDS011;34299;50.820;4.548;2022-11-15T04:28:19;7.50;;;5.67;;
11582;SDS011;34299;50.820;4.548;2022-11-15T04:30:46;6.43;;;4.87;;
11582;SDS011;34299;50.820;4.548;2022-11-15T04:33:14;8.83;;;5.00;;
11582;SDS011;34299;50.820;4.548;2022-11-15T04:35:41;9.53;;;5.77;;
11582;SDS011;34299;50.820;4.548;2022-11-15T04:38:10;6.20;;;4.53;;
11582;SDS011;34299;50.820;4.548;2022-11-15T04:40:37;6.63;;;4.47;;
11582;SDS011;34299;50.820;4.548;2022-11-15T04:43:04;7.80;;;4.80;;
11582;SDS011;34299;50.820;4.548;2022-11-15T04:45:31;9.60;;;4.53;;
11582;SDS011;34299;50.820;4.548;2022-11-15T04:47:58;7.73;;;5.07;;
11582;SDS011;34299;50.820;4.548;2022-11-15T04:50:26;7.97;;;4.53;;
11582;SDS011;34299;50.820;4.548;2022-11-15T04:52:53;7.93;;;4.40;;
11582;SDS011;34299;50.820;4.548;2022-11-15T04:55:22;6.70;;;3.93;;
11582;SDS011;34299;50.820;4.548;2022-11-15T04:57:56;8.80;;;4.50;;
11582;SDS011;34299;50.820;4.548;2022-11-15T05:00:24;5.20;;;3.30;;
11582;SDS011;34299;50.820;4.548;2022-11-15T05:02:51;5.87;;;3.70;;
11582;SDS011;34299;50.820;4.548;2022-11-15T05:05:36;5.33;;;3.43;;
11582;SDS011;34299;50.820;4.548;2022-11-15T05:08:04;5.77;;;3.10;;
11582;SDS011;34299;50.820;4.548;2022-11-15T05:10:32;7.17;;;4.37;;
11582;SDS011;34299;50.820;4.548;2022-11-15T05:13:00;8.90;;;4.20;;
11582;SDS011;34299;50.820;4.548;2022-11-15T05:15:27;8.40;;;4.60;;
11582;SDS011;34299;50.820;4.548;2022-11-15T05:17:56;9.80;;;4.47;;
11582;SDS011;34299;50.820;4.548;2022-11-15T05:20:24;8.27;;;3.50;;
11582;SDS011;34299;50.820;4.548;2022-11-15T05:22:52;9.13;;;4.60;;
11582;SDS011;34299;50.820;4.548;2022-11-15T05:25:20;6.13;;;4.33;;
11582;SDS011;34299;50.820;4.548;2022-11-15T05:27:48;5.97;;;4.27;;
11582;SDS011;34299;50.820;4.548;2022-11-15T05:30:16;6.80;;;3.87;;
11582;SDS011;34299;50.820;4.548;2022-11-15T05:32:43;8.30;;;3.47;;
11582;SDS011;34299;50.820;4.548;2022-11-15T05:35:12;7.60;;;4.00;;
11582;SDS011;34299;50.820;4.548;2022-11-15T05:37:40;11.37;;;3.30;;
11582;SDS011;34299;50.820;4.548;2022-11-15T05:40:07;4.73;;;3.43;;
11582;SDS011;34299;50.820;4.548;2022-11-15T05:42:35;5.93;;;3.60;;
11582;SDS011;34299;50.820;4.548;2022-11-15T05:45:04;3.63;;;3.30;;
11582;SDS011;34299;50.820;4.548;2022-11-15T05:47:32;7.63;;;4.10;;
11582;SDS011;34299;50.820;4.548;2022-11-15T05:50:00;5.70;;;3.87;;
11582;SDS011;34299;50.820;4.548;2022-11-15T05:52:28;4.57;;;3.50;;
11582;SDS011;34299;50.820;4.548;2022-11-15T05:54:57;6.43;;;3.50;;
11582;SDS011;34299;50.820;4.548;2022-11-15T05:57:24;6.70;;;3.57;;
11582;SDS011;34299;50.820;4.548;2022-11-15T05:59:52;5.40;;;3.67;;
11582;SDS011;34299;50.820;4.548;2022-11-15T06:02:22;4.80;;;3.60;;
11582;SDS011;34299;50.820;4.548;2022-11-15T06:04:49;5.73;;;3.30;;
11582;SDS011;34299;50.820;4.548;2022-11-15T06:07:16;7.53;;;3.90;;
11582;SDS011;34299;50.820;4.548;2022-11-15T06:09:43;7.07;;;3.60;;
11582;SDS011;34299;50.820;4.548;2022-11-15T06:12:10;5.33;;;3.50;;
11582;SDS011;34299;50.820;4.548;2022-11-15T06:14:38;6.13;;;4.10;;
11582;SDS011;34299;50.820;4.548;2022-11-15T06:17:05;6.50;;;3.57;;
11582;SDS011;34299;50.820;4.548;2022-11-15T06:19:33;8.10;;;4.17;;
11582;SDS011;34299;50.820;4.548;2022-11-15T06:22:01;8.53;;;4.00;;
11582;SDS011;34299;50.820;4.548;2022-11-15T06:24:28;5.63;;;3.97;;
11582;SDS011;34299;50.820;4.548;2022-11-15T06:26:55;5.70;;;3.67;;
11582;SDS011;34299;50.820;4.548;2022-11-15T06:29:22;8.13;;;4.20;;
11582;SDS011;34299;50.820;4.548;2022-11-15T06:31:49;4.67;;;3.67;;
11582;SDS011;34299;50.820;4.548;2022-11-15T06:34:17;11.07;;;4.33;;
11582;SDS011;34299;50.820;4.548;2022-11-15T06:36:46;5.67;;;3.30;;
11582;SDS011;34299;50.820;4.548;2022-11-15T06:39:13;7.37;;;3.20;;
11582;SDS011;34299;50.820;4.548;2022-11-15T06:41:40;6.60;;;3.23;;
11582;SDS011;34299;50.820;4.548;2022-11-15T06:44:07;4.77;;;3.70;;
11582;SDS011;34299;50.820;4.548;2022-11-15T06:46:34;5.00;;;3.43;;
11582;SDS011;34299;50.820;4.548;2022-11-15T06:49:02;7.63;;;3.97;;
11582;SDS011;34299;50.820;4.548;2022-11-15T06:51:29;3.83;;;3.43;;
11582;SDS011;34299;50.820;4.548;2022-11-15T06:53:57;5.80;;;3.37;;
11582;SDS011;34299;50.820;4.548;2022-11-15T06:56:25;5.87;;;3.97;;
11582;SDS011;34299;50.820;4.548;2022-11-15T06:58:52;6.20;;;3.27;;
11582;SDS011;34299;50.820;4.548;2022-11-15T07:01:19;6.30;;;2.97;;
11582;SDS011;34299;50.820;4.548;2022-11-15T07:03:46;4.90;;;3.33;;
11582;SDS011;34299;50.820;4.548;2022-11-15T07:06:13;5.10;;;2.87;;
11582;SDS011;34299;50.820;4.548;2022-11-15T07:08:41;3.90;;;2.87;;
11582;SDS011;34299;50.820;4.548;2022-11-15T07:11:09;5.13;;;3.07;;
11582;SDS011;34299;50.820;4.548;2022-11-15T07:13:36;6.40;;;3.03;;
11582;SDS011;34299;50.820;4.548;2022-11-15T07:16:04;6.83;;;3.33;;
11582;SDS011;34299;50.820;4.548;2022-11-15T07:18:33;7.30;;;3.87;;
11582;SDS011;34299;50.820;4.548;2022-11-15T07:21:01;10.50;;;3.23;;
11582;SDS011;34299;50.820;4.548;2022-11-15T07:23:28;5.33;;;3.60;;
11582;SDS011;34299;50.820;4.548;2022-11-15T07:25:56;7.73;;;3.00;;
11582;SDS011;34299;50.820;4.548;2022-11-15T07:28:25;4.57;;;2.70;;
11582;SDS011;34299;50.820;4.548;2022-11-15T07:30:53;7.07;;;2.80;;
11582;SDS011;34299;50.820;4.548;2022-11-15T07:33:20;3.80;;;2.70;;
11582;SDS011;34299;50.820;4.548;2022-11-15T07:35:47;5.83;;;3.50;;
11582;SDS011;34299;50.820;4.548;2022-11-15T07:38:14;7.23;;;3.00;;
11582;SDS011;34299;50.820;4.548;2022-11-15T07:40:44;6.20;;;3.17;;
11582;SDS011;34299;50.820;4.548;2022-11-15T07:43:11;3.63;;;3.13;;
11582;SDS011;34299;50.820;4.548;2022-11-15T07:45:41;3.23;;;2.67;;
11582;SDS011;34299;50.820;4.548;2022-11-15T07:48:09;5.07;;;2.57;;
11582;SDS011;34299;50.820;4.548;2022-11-15T07:50:36;2.47;;;1.90;;
11582;SDS011;34299;50.820;4.548;2022-11-15T07:53:03;2.10;;;1.77;;
11582;SDS011;34299;50.820;4.548;2022-11-15T07:55:30;3.77;;;3.00;;
11582;SDS011;34299;50.820;4.548;2022-11-15T07:58:01;3.50;;;2.80;;
11582;SDS011;34299;50.820;4.548;2022-11-15T08:00:28;6.50;;;2.53;;
11582;SDS011;34299;50.820;4.548;2022-11-15T08:03:02;3.10;;;2.23;;
11582;SDS011;34299;50.820;4.548;2022-11-15T08:05:29;5.43;;;2.20;;
11582;SDS011;34299;50.820;4.548;2022-11-15T08:07:56;5.37;;;2.00;;
11582;SDS011;34299;50.820;4.548;2022-11-15T08:10:24;7.13;;;2.23;;
11582;SDS011;34299;50.820;4.548;2022-11-15T08:12:56;5.00;;;2.50;;
11582;SDS011;34299;50.820;4.548;2022-11-15T08:15:23;2.27;;;1.97;;
11582;SDS011;34299;50.820;4.548;2022-11-15T08:17:53;2.80;;;1.60;;
11582;SDS011;34299;50.820;4.548;2022-11-15T08:20:21;2.47;;;1.90;;
11582;SDS011;34299;50.820;4.548;2022-11-15T08:22:49;6.90;;;2.93;;
11582;SDS011;34299;50.820;4.548;2022-11-15T08:25:16;3.03;;;2.03;;
11582;SDS011;34299;50.820;4.548;2022-11-15T08:27:43;1.83;;;1.40;;
11582;SDS011;34299;50.820;4.548;2022-11-15T08:30:11;1.33;;;0.90;;
11582;SDS011;34299;50.820;4.548;2022-11-15T08:32:38;1.20;;;1.10;;
11582;SDS011;34299;50.820;4.548;2022-11-15T08:35:06;2.37;;;1.43;;
11582;SDS011;34299;50.820;4.548;2022-11-15T08:37:34;3.17;;;1.63;;
11582;SDS011;34299;50.820;4.548;2022-11-15T08:40:02;1.93;;;1.20;;
11582;SDS011;34299;50.820;4.548;2022-11-15T08:42:29;2.03;;;1.33;;
11582;SDS011;34299;50.820;4.548;2022-11-15T08:44:57;1.63;;;1.50;;
11582;SDS011;34299;50.820;4.548;2022-11-15T08:47:24;5.70;;;1.37;;
11582;SDS011;34299;50.820;4.548;2022-11-15T08:49:51;4.87;;;1.50;;
11582;SDS011;34299;50.820;4.548;2022-11-15T08:52:18;3.47;;;1.23;;
11582;SDS011;34299;50.820;4.548;2022-11-15T08:54:47;2.13;;;1.27;;
11582;SDS011;34299;50.820;4.548;2022-11-15T08:57:14;1.17;;;1.00;;
11582;SDS011;34299;50.820;4.548;2022-11-15T08:59:42;2.13;;;1.50;;
11582;SDS011;34299;50.820;4.548;2022-11-15T09:02:10;1.23;;;1.20;;
11582;SDS011;34299;50.820;4.548;2022-11-15T09:04:39;3.13;;;1.07;;
11582;SDS011;34299;50.820;4.548;2022-11-15T09:07:06;4.47;;;1.33;;
11582;SDS011;34299;50.820;4.548;2022-11-15T09:09:33;6.97;;;1.77;;
11582;SDS011;34299;50.820;4.548;2022-11-15T09:12:02;6.17;;;1.83;;
11582;SDS011;34299;50.820;4.548;2022-11-15T09:14:29;3.03;;;1.10;;
11582;SDS011;34299;50.820;4.548;2022-11-15T09:16:56;2.27;;;1.17;;
11582;SDS011;34299;50.820;4.548;2022-11-15T09:19:24;1.13;;;0.80;;
11582;SDS011;34299;50.820;4.548;2022-11-15T09:21:51;4.37;;;1.20;;
11582;SDS011;34299;50.820;4.548;2022-11-15T09:24:18;3.20;;;1.40;;
11582;SDS011;34299;50.820;4.548;2022-11-15T09:26:46;4.20;;;1.40;;
11582;SDS011;34299;50.820;4.548;2022-11-15T09:29:14;4.13;;;1.47;;
11582;SDS011;34299;50.820;4.548;2022-11-15T09:31:41;3.13;;;1.63;;
11582;SDS011;34299;50.820;4.548;2022-11-15T09:34:09;3.50;;;1.70;;
11582;SDS011;34299;50.820;4.548;2022-11-15T09:36:36;4.83;;;2.00;;
11582;SDS011;34299;50.820;4.548;2022-11-15T09:39:03;3.70;;;1.60;;
11582;SDS011;34299;50.820;4.548;2022-11-15T09:41:34;2.13;;;1.77;;
11582;SDS011;34299;50.820;4.548;2022-11-15T09:44:08;6.03;;;1.40;;
11582;SDS011;34299;50.820;4.548;2022-11-15T09:46:44;1.57;;;1.00;;
11582;SDS011;34299;50.820;4.548;2022-11-15T09:49:15;3.33;;;1.40;;
11582;SDS011;34299;50.820;4.548;2022-11-15T09:51:44;2.03;;;1.20;;
11582;SDS011;34299;50.820;4.548;2022-11-15T09:54:23;1.40;;;1.20;;
11582;SDS011;34299;50.820;4.548;2022-11-15T09:56:53;3.63;;;1.10;;
11582;SDS011;34299;50.820;4.548;2022-11-15T09:59:23;3.83;;;1.47;;
11582;SDS011;34299;50.820;4.548;2022-11-15T10:01:58;2.57;;;0.90;;
11582;SDS011;34299;50.820;4.548;2022-11-15T10:04:27;1.50;;;1.07;;
11582;SDS011;34299;50.820;4.548;2022-11-15T10:07:00;2.00;;;0.90;;
11582;SDS011;34299;50.820;4.548;2022-11-15T10:09:31;2.67;;;1.07;;
11582;SDS011;34299;50.820;4.548;2022-11-15T10:12:02;1.27;;;1.00;;
11582;SDS011;34299;50.820;4.548;2022-11-15T10:14:30;1.67;;;1.07;;
11582;SDS011;34299;50.820;4.548;2022-11-15T10:17:09;1.53;;;1.00;;
11582;SDS011;34299;50.820;4.548;2022-11-15T10:19:43;1.20;;;0.93;;
11582;SDS011;34299;50.820;4.548;2022-11-15T10:22:15;1.63;;;0.80;;
11582;SDS011;34299;50.820;4.548;2022-11-15T10:24:45;1.80;;;1.17;;
11582;SDS011;34299;50.820;4.548;2022-11-15T10:27:13;1.90;;;1.10;;
11582;SDS011;34299;50.820;4.548;2022-11-15T10:29:42;3.57;;;1.17;;
11582;SDS011;34299;50.820;4.548;2022-11-15T10:32:11;3.10;;;1.50;;
11582;SDS011;34299;50.820;4.548;2022-11-15T10:34:38;3.60;;;1.03;;
11582;SDS011;34299;50.820;4.548;2022-11-15T10:37:06;3.43;;;1.70;;
11582;SDS011;34299;50.820;4.548;2022-11-15T10:39:33;4.93;;;1.30;;
11582;SDS011;34299;50.820;4.548;2022-11-15T10:42:14;1.87;;;0.80;;
11582;SDS011;34299;50.820;4.548;2022-11-15T10:44:42;2.83;;;1.33;;
11582;SDS011;34299;50.820;4.548;2022-11-15T10:50:04;5.07;;;1.60;;
11582;SDS011;34299;50.820;4.548;2022-11-15T10:52:32;2.47;;;1.30;;
11582;SDS011;34299;50.820;4.548;2022-11-15T10:55:02;0.60;;;0.60;;
11582;SDS011;34299;50.820;4.548;2022-11-15T10:57:31;1.37;;;0.77;;
11582;SDS011;34299;50.820;4.548;2022-11-15T10:59:59;2.60;;;1.10;;
11582;SDS011;34299;50.820;4.548;2022-11-15T11:02:28;2.33;;;1.03;;
11582;SDS011;34299;50.820;4.548;2022-11-15T11:04:56;5.40;;;1.10;;
11582;SDS011;34299;50.820;4.548;2022-11-15T11:07:25;4.93;;;1.00;;
11582;SDS011;34299;50.820;4.548;2022-11-15T11:09:57;2.20;;;1.17;;
11582;SDS011;34299;50.820;4.548;2022-11-15T11:12:27;1.60;;;0.80;;
11582;SDS011;34299;50.820;4.548;2022-11-15T11:14:55;1.07;;;0.60;;
11582;SDS011;34299;50.820;4.548;2022-11-15T11:17:23;4.17;;;1.17;;
11582;SDS011;34299;50.820;4.548;2022-11-15T11:19:55;3.03;;;1.20;;
11582;SDS011;34299;50.820;4.548;2022-11-15T11:22:26;5.93;;;1.33;;
11582;SDS011;34299;50.820;4.548;2022-11-15T11:25:00;3.27;;;1.20;;
11582;SDS011;34299;50.820;4.548;2022-11-15T11:27:34;0.77;;;0.73;;
11582;SDS011;34299;50.820;4.548;2022-11-15T11:30:06;3.10;;;0.80;;
11582;SDS011;34299;50.820;4.548;2022-11-15T11:35:19;4.53;;;1.00;;
11582;SDS011;34299;50.820;4.548;2022-11-15T11:37:49;1.60;;;0.97;;
11582;SDS011;34299;50.820;4.548;2022-11-15T11:40:20;2.27;;;1.20;;
11582;SDS011;34299;50.820;4.548;2022-11-15T11:42:53;4.13;;;1.17;;
11582;SDS011;34299;50.820;4.548;2022-11-15T11:45:26;1.83;;;0.87;;
11582;SDS011;34299;50.820;4.548;2022-11-15T11:47:57;1.00;;;0.90;;
11582;SDS011;34299;50.820;4.548;2022-11-15T11:50:26;1.80;;;0.83;;
11582;SDS011;34299;50.820;4.548;2022-11-15T11:52:56;1.17;;;1.07;;
11582;SDS011;34299;50.820;4.548;2022-11-15T11:55:24;1.73;;;0.97;;
11582;SDS011;34299;50.820;4.548;2022-11-15T11:57:54;2.00;;;0.97;;
11582;SDS011;34299;50.820;4.548;2022-11-15T12:00:24;3.43;;;1.03;;
11582;SDS011;34299;50.820;4.548;2022-11-15T12:03:02;2.97;;;0.67;;
11582;SDS011;34299;50.820;4.548;2022-11-15T12:05:30;0.77;;;0.77;;
11582;SDS011;34299;50.820;4.548;2022-11-15T12:08:01;1.37;;;0.53;;
11582;SDS011;34299;50.820;4.548;2022-11-15T12:10:30;3.23;;;1.00;;
11582;SDS011;34299;50.820;4.548;2022-11-15T12:13:00;1.67;;;0.50;;
11582;SDS011;34299;50.820;4.548;2022-11-15T12:15:30;3.57;;;0.90;;
11582;SDS011;34299;50.820;4.548;2022-11-15T12:17:59;1.50;;;1.03;;
11582;SDS011;34299;50.820;4.548;2022-11-15T12:20:27;2.23;;;1.03;;
11582;SDS011;34299;50.820;4.548;2022-11-15T12:22:57;2.83;;;0.70;;
11582;SDS011;34299;50.820;4.548;2022-11-15T12:25:29;1.43;;;0.90;;
11582;SDS011;34299;50.820;4.548;2022-11-15T12:27:59;0.80;;;0.63;;
11582;SDS011;34299;50.820;4.548;2022-11-15T12:30:43;3.07;;;1.13;;
11582;SDS011;34299;50.820;4.548;2022-11-15T12:35:57;4.00;;;1.07;;
11582;SDS011;34299;50.820;4.548;2022-11-15T12:41:13;2.03;;;0.90;;
11582;SDS011;34299;50.820;4.548;2022-11-15T12:43:40;3.27;;;1.30;;
11582;SDS011;34299;50.820;4.548;2022-11-15T12:46:10;2.07;;;1.10;;
11582;SDS011;34299;50.820;4.548;2022-11-15T12:59:49;2.57;;;1.30;;
11582;SDS011;34299;50.820;4.548;2022-11-15T13:02:17;2.73;;;1.20;;
11582;SDS011;34299;50.820;4.548;2022-11-15T13:04:46;1.90;;;1.17;;
11582;SDS011;34299;50.820;4.548;2022-11-15T13:07:54;1.70;;;1.17;;
11582;SDS011;34299;50.820;4.548;2022-11-15T13:12:56;4.47;;;1.23;;
11582;SDS011;34299;50.820;4.548;2022-11-15T13:15:32;3.67;;;1.40;;
11582;SDS011;34299;50.820;4.548;2022-11-15T13:18:23;2.47;;;1.00;;
11582;SDS011;34299;50.820;4.548;2022-11-15T13:20:50;1.97;;;1.20;;
11582;SDS011;34299;50.820;4.548;2022-11-15T13:23:17;3.90;;;1.20;;
11582;SDS011;34299;50.820;4.548;2022-11-15T13:26:03;1.80;;;1.30;;
11582;SDS011;34299;50.820;4.548;2022-11-15T13:28:33;1.00;;;0.90;;
11582;SDS011;34299;50.820;4.548;2022-11-15T13:31:13;1.17;;;1.00;;
11582;SDS011;34299;50.820;4.548;2022-11-15T13:33:44;1.20;;;1.10;;
11582;SDS011;34299;50.820;4.548;2022-11-15T13:36:13;1.33;;;0.97;;
11582;SDS011;34299;50.820;4.548;2022-11-15T13:38:40;4.30;;;1.40;;
11582;SDS011;34299;50.820;4.548;2022-11-15T13:41:13;1.77;;;1.00;;
11582;SDS011;34299;50.820;4.548;2022-11-15T13:43:41;1.13;;;0.90;;
11582;SDS011;34299;50.820;4.548;2022-11-15T13:46:14;3.77;;;1.10;;
11582;SDS011;34299;50.820;4.548;2022-11-15T13:48:43;1.17;;;0.97;;
11582;SDS011;34299;50.820;4.548;2022-11-15T13:51:13;1.77;;;1.40;;
11582;SDS011;34299;50.820;4.548;2022-11-15T13:53:43;3.10;;;1.77;;
11582;SDS011;34299;50.820;4.548;2022-11-15T13:56:11;1.63;;;1.17;;
11582;SDS011;34299;50.820;4.548;2022-11-15T13:58:39;1.90;;;1.33;;
11582;SDS011;34299;50.820;4.548;2022-11-15T14:01:06;2.63;;;1.30;;
11582;SDS011;34299;50.820;4.548;2022-11-15T14:03:37;2.40;;;1.17;;
11582;SDS011;34299;50.820;4.548;2022-11-15T14:06:09;8.30;;;1.53;;
11582;SDS011;34299;50.820;4.548;2022-11-15T14:08:37;2.13;;;1.20;;
11582;SDS011;34299;50.820;4.548;2022-11-15T14:11:09;1.80;;;1.40;;
11582;SDS011;34299;50.820;4.548;2022-11-15T14:13:37;2.97;;;1.60;;
11582;SDS011;34299;50.820;4.548;2022-11-15T14:16:18;2.20;;;1.60;;
11582;SDS011;34299;50.820;4.548;2022-11-15T14:18:47;1.43;;;1.20;;
11582;SDS011;34299;50.820;4.548;2022-11-15T14:21:15;2.77;;;1.10;;
11582;SDS011;34299;50.820;4.548;2022-11-15T14:23:42;2.80;;;1.50;;
11582;SDS011;34299;50.820;4.548;2022-11-15T14:26:26;2.43;;;0.90;;
11582;SDS011;34299;50.820;4.548;2022-11-15T14:28:53;2.77;;;1.83;;
11582;SDS011;34299;50.820;4.548;2022-11-15T14:31:21;1.90;;;1.23;;
11582;SDS011;34299;50.820;4.548;2022-11-15T14:33:49;1.33;;;1.23;;
11582;SDS011;34299;50.820;4.548;2022-11-15T14:36:17;2.40;;;1.50;;
11582;SDS011;34299;50.820;4.548;2022-11-15T14:38:44;2.23;;;1.47;;
11582;SDS011;34299;50.820;4.548;2022-11-15T14:41:17;1.90;;;1.43;;
11582;SDS011;34299;50.820;4.548;2022-11-15T14:43:44;3.17;;;1.30;;
11582;SDS011;34299;50.820;4.548;2022-11-15T14:46:11;1.53;;;1.43;;
11582;SDS011;34299;50.820;4.548;2022-11-15T14:48:38;2.47;;;1.30;;
11582;SDS011;34299;50.820;4.548;2022-11-15T14:51:11;1.93;;;1.43;;
11582;SDS011;34299;50.820;4.548;2022-11-15T14:53:38;1.60;;;1.20;;
11582;SDS011;34299;50.820;4.548;2022-11-15T14:56:06;1.47;;;1.13;;
11582;SDS011;34299;50.820;4.548;2022-11-15T14:58:33;1.80;;;1.40;;
11582;SDS011;34299;50.820;4.548;2022-11-15T15:01:01;6.27;;;1.70;;
11582;SDS011;34299;50.820;4.548;2022-11-15T15:03:29;3.43;;;1.73;;
11582;SDS011;34299;50.820;4.548;2022-11-15T15:05:56;2.43;;;1.30;;
11582;SDS011;34299;50.820;4.548;2022-11-15T15:08:24;3.60;;;1.77;;
11582;SDS011;34299;50.820;4.548;2022-11-15T15:10:52;3.50;;;1.30;;
11582;SDS011;34299;50.820;4.548;2022-11-15T15:13:20;3.07;;;1.30;;
11582;SDS011;34299;50.820;4.548;2022-11-15T15:15:47;1.30;;;1.20;;
11582;SDS011;34299;50.820;4.548;2022-11-15T15:18:15;3.80;;;1.17;;
11582;SDS011;34299;50.820;4.548;2022-11-15T15:20:43;1.80;;;1.30;;
11582;SDS011;34299;50.820;4.548;2022-11-15T15:23:14;1.27;;;1.17;;